createdAt,value
2023-07-18T00:04:20.268Z,19.40
2023-07-18T00:09:27.765Z,19.60
2023-07-18T00:14:35.163Z,19.70
2023-07-18T00:19:42.622Z,19.70
2023-07-18T00:24:49.699Z,19.50
2023-07-18T00:29:59.796Z,19.30
2023-07-18T00:35:09.235Z,19.40
2023-07-18T00:40:18.703Z,19.30
2023-07-18T00:45:25.758Z,19.30
2023-07-18T00:50:32.653Z,19.30
2023-07-18T00:55:41.075Z,19.40
2023-07-18T01:00:48.183Z,19.40
2023-07-18T01:05:56.833Z,19.60
2023-07-18T01:11:04.084Z,19.70
2023-07-18T01:16:12.089Z,19.80
2023-07-18T01:21:24.595Z,19.60
2023-07-18T01:26:32.266Z,19.50
2023-07-18T01:31:39.372Z,19.50
2023-07-18T01:36:46.818Z,19.60
2023-07-18T01:41:53.831Z,19.40
2023-07-18T01:47:00.835Z,19.40
2023-07-18T01:52:09.235Z,19.40
2023-07-18T01:57:15.962Z,19.60
2023-07-18T02:02:23.321Z,19.70
2023-07-18T02:07:30.683Z,19.60
2023-07-18T02:12:38.194Z,19.60
2023-07-18T02:17:46.236Z,19.50
2023-07-18T02:22:53.769Z,19.30
2023-07-18T02:28:00.577Z,19.30
2023-07-18T02:33:08.681Z,19.30
2023-07-18T02:38:15.831Z,19.30
2023-07-18T02:43:23.066Z,19.30
2023-07-18T02:48:30.058Z,19.30
2023-07-18T02:53:37.083Z,19.30
2023-07-18T02:58:44.037Z,19.40
2023-07-18T03:03:51.264Z,19.40
2023-07-18T03:08:59.034Z,19.40
2023-07-18T03:14:07.826Z,19.50
2023-07-18T03:19:16.610Z,19.40
2023-07-18T03:24:23.287Z,19.40
2023-07-18T03:29:30.335Z,19.30
2023-07-18T03:34:37.165Z,19.30
2023-07-18T03:39:44.283Z,19.40
2023-07-18T03:44:51.478Z,19.40
2023-07-18T03:49:58.342Z,19.60
2023-07-18T03:55:06.657Z,19.60
2023-07-18T04:00:19.428Z,19.60
2023-07-18T04:05:26.362Z,19.60
2023-07-18T04:10:34.261Z,19.80
2023-07-18T04:15:41.086Z,19.80
2023-07-18T04:20:48.040Z,19.90
2023-07-18T04:26:04.303Z,19.80
2023-07-18T04:31:11.194Z,19.80
2023-07-18T04:36:18.030Z,19.90
2023-07-18T04:41:30.752Z,19.90
2023-07-18T04:46:35.008Z,19.80
2023-07-18T04:51:42.153Z,19.90
2023-07-18T04:56:49.001Z,20.00
2023-07-18T05:01:56.954Z,20.00
2023-07-18T05:07:04.335Z,20.20
2023-07-18T05:12:11.753Z,20.30
2023-07-18T05:17:18.765Z,20.30
2023-07-18T05:22:25.949Z,20.40
2023-07-18T05:27:33.196Z,20.60
2023-07-18T05:32:40.447Z,20.60
2023-07-18T05:37:48.159Z,20.60
2023-07-18T05:42:55.815Z,20.60
2023-07-18T05:48:02.886Z,20.60
2023-07-18T05:53:09.890Z,20.60
2023-07-18T05:58:17.325Z,20.70
2023-07-18T06:03:25.317Z,20.80
2023-07-18T06:08:32.910Z,20.80
2023-07-18T06:13:40.667Z,20.90
2023-07-18T06:18:47.929Z,21.00
2023-07-18T06:24:01.673Z,21.20
2023-07-18T06:29:04.697Z,21.10
2023-07-18T06:34:11.766Z,21.10
2023-07-18T06:39:19.793Z,21.10
2023-07-18T06:44:26.588Z,21.20
2023-07-18T06:49:33.625Z,21.30
2023-07-18T06:54:40.740Z,21.60
2023-07-18T06:59:47.802Z,21.80
2023-07-18T07:04:54.809Z,21.70
2023-07-18T07:10:01.832Z,21.80
2023-07-18T07:15:11.794Z,22.10
2023-07-18T07:20:20.492Z,22.40
2023-07-18T07:25:33.155Z,22.80
2023-07-18T07:30:39.926Z,23.40
2023-07-18T07:35:47.355Z,24.00
2023-07-18T07:40:54.720Z,24.20
2023-07-18T07:46:03.231Z,24.30
2023-07-18T07:51:10.682Z,24.80
2023-07-18T07:56:18.035Z,25.00
2023-07-18T08:01:24.998Z,24.90
2023-07-18T08:06:32.131Z,25.10
2023-07-18T08:11:39.161Z,25.60
2023-07-18T08:16:46.644Z,24.80
2023-07-18T08:21:53.947Z,24.80
2023-07-18T08:27:01.508Z,25.50
2023-07-18T08:32:09.622Z,25.70
2023-07-18T08:37:17.154Z,26.10
2023-07-18T08:42:29.767Z,26.60
2023-07-18T08:47:37.160Z,26.80
2023-07-18T08:52:44.925Z,26.50
2023-07-18T08:57:52.287Z,27.00
2023-07-18T09:02:59.347Z,26.90
2023-07-18T09:08:08.700Z,27.60
2023-07-18T09:13:15.582Z,27.30
2023-07-18T09:18:22.545Z,27.20
2023-07-18T09:23:29.660Z,27.00
2023-07-18T09:28:36.820Z,26.90
2023-07-18T09:33:44.130Z,27.00
2023-07-18T09:38:53.373Z,27.40
2023-07-18T09:44:27.619Z,28.40
2023-07-18T09:49:14.801Z,27.90
2023-07-18T09:54:22.674Z,28.20
2023-07-18T09:59:32.485Z,28.30
2023-07-18T10:04:40.761Z,27.80
2023-07-18T10:09:49.156Z,28.80
2023-07-18T10:15:01.952Z,28.60
2023-07-18T10:20:21.957Z,28.20
2023-07-18T10:25:34.046Z,28.30
2023-07-18T10:30:43.882Z,29.20
2023-07-18T10:35:52.384Z,29.00
2023-07-18T10:40:59.249Z,28.40
2023-07-18T10:46:08.584Z,28.20
2023-07-18T10:51:15.669Z,28.40
2023-07-18T10:56:25.151Z,28.50
2023-07-18T11:01:32.150Z,28.80
2023-07-18T11:06:39.256Z,29.20
2023-07-18T11:11:46.038Z,29.20
2023-07-18T11:16:53.618Z,29.50
2023-07-18T11:22:00.599Z,28.80
2023-07-18T11:27:30.242Z,28.20
2023-07-18T11:32:43.065Z,27.30
2023-07-18T11:37:54.761Z,27.30
2023-07-18T11:43:02.073Z,28.20
2023-07-18T11:48:10.814Z,28.60
2023-07-18T11:53:22.183Z,28.50
2023-07-18T11:58:29.613Z,29.10
2023-07-18T12:03:37.869Z,29.00
2023-07-18T12:08:44.994Z,28.80
2023-07-18T12:13:52.136Z,28.40
2023-07-18T12:18:59.171Z,28.80
2023-07-18T12:24:06.387Z,28.30
2023-07-18T12:29:15.541Z,27.90
2023-07-18T12:34:23.352Z,27.90
2023-07-18T12:39:30.226Z,27.80
2023-07-18T12:44:50.680Z,27.90
2023-07-18T12:49:57.712Z,27.50
2023-07-18T12:55:05.367Z,27.30
2023-07-18T13:00:13.794Z,27.30
2023-07-18T13:05:22.145Z,26.90
2023-07-18T13:10:29.019Z,27.40
2023-07-18T13:15:36.296Z,27.20
2023-07-18T13:20:43.702Z,26.80
2023-07-18T13:25:51.025Z,26.80
2023-07-18T13:30:59.099Z,26.60
2023-07-18T13:36:07.057Z,26.90
2023-07-18T13:41:15.996Z,26.70
2023-07-18T13:46:23.482Z,26.80
2023-07-18T13:51:32.556Z,26.90
2023-07-18T13:56:39.577Z,26.70
2023-07-18T14:01:46.788Z,27.20
2023-07-18T14:06:53.965Z,27.00
2023-07-18T14:12:01.669Z,27.00
2023-07-18T14:17:08.580Z,26.90
2023-07-18T14:22:17.186Z,26.90
2023-07-18T14:27:24.108Z,26.70
2023-07-18T14:32:32.587Z,26.50
2023-07-18T14:37:40.212Z,26.60
2023-07-18T14:42:48.789Z,26.60
2023-07-18T14:47:56.972Z,26.90
2023-07-18T14:53:04.137Z,26.70
2023-07-18T14:58:11.541Z,26.50
2023-07-18T15:03:18.947Z,26.50
2023-07-18T15:08:26.317Z,26.30
2023-07-18T15:13:34.609Z,26.00
2023-07-18T15:18:41.564Z,25.40
2023-07-18T15:23:48.609Z,25.00
2023-07-18T15:28:55.707Z,24.80
2023-07-18T15:34:03.189Z,24.50
2023-07-18T15:39:10.603Z,24.20
2023-07-18T15:44:17.872Z,24.10
2023-07-18T15:49:25.035Z,24.10
2023-07-18T16:00:19.593Z,23.20
2023-07-18T16:05:26.494Z,21.30
2023-07-18T16:10:33.365Z,20.70
2023-07-18T16:15:40.329Z,20.60
2023-07-18T16:20:47.117Z,20.60
2023-07-18T16:25:53.916Z,20.70
2023-07-18T16:31:00.743Z,20.80
2023-07-18T16:36:08.042Z,20.80
2023-07-18T16:41:14.978Z,20.50
2023-07-18T16:46:23.016Z,20.60
2023-07-18T16:51:30.213Z,20.00
2023-07-18T16:56:37.087Z,19.80
2023-07-18T17:01:44.594Z,19.80
2023-07-18T17:06:52.603Z,20.20
2023-07-18T17:11:59.410Z,20.20
2023-07-18T17:17:06.465Z,19.90
2023-07-18T17:22:13.773Z,19.80
2023-07-18T17:27:21.323Z,19.80
2023-07-18T17:32:28.562Z,19.10
2023-07-18T17:37:35.460Z,18.70
2023-07-18T17:42:47.012Z,18.70
2023-07-18T17:47:54.876Z,18.40
2023-07-18T17:53:04.006Z,18.00
2023-07-18T17:58:10.765Z,18.50
2023-07-18T18:03:17.757Z,18.80
2023-07-18T18:08:24.558Z,18.90
2023-07-18T18:13:31.414Z,18.90
2023-07-18T18:18:38.418Z,18.90
2023-07-18T18:23:45.295Z,19.00
2023-07-18T18:28:53.381Z,18.90
2023-07-18T18:34:04.134Z,18.90
2023-07-18T18:39:11.470Z,19.00
2023-07-18T18:44:18.300Z,18.80
2023-07-18T18:49:27.598Z,18.80
2023-07-18T18:54:33.642Z,18.60
2023-07-18T18:59:41.151Z,18.70
2023-07-18T19:04:53.260Z,18.70
2023-07-18T19:10:00.177Z,18.60
2023-07-18T19:15:07.917Z,18.80
2023-07-18T19:20:15.893Z,18.50
2023-07-18T19:25:24.768Z,18.30
2023-07-18T19:30:31.724Z,18.10
2023-07-18T19:35:38.936Z,17.90
2023-07-18T19:40:45.845Z,17.80
2023-07-18T19:45:53.264Z,17.90
2023-07-18T19:51:00.291Z,18.00
2023-07-18T19:56:08.141Z,17.90
2023-07-18T20:01:15.894Z,18.10
2023-07-18T20:06:22.986Z,18.00
2023-07-18T20:11:29.990Z,18.00
2023-07-18T20:16:37.433Z,17.80
2023-07-18T20:21:44.286Z,17.90
2023-07-18T20:26:51.735Z,17.90
2023-07-18T20:31:58.748Z,17.90
2023-07-18T20:37:07.728Z,17.90
2023-07-18T20:42:14.927Z,18.00
2023-07-18T20:47:22.231Z,18.10
2023-07-18T20:52:29.248Z,18.10
2023-07-18T20:57:36.385Z,17.80
2023-07-18T21:02:43.881Z,17.80
2023-07-18T21:07:50.927Z,17.70
2023-07-18T21:12:57.860Z,17.70
2023-07-18T21:18:04.794Z,17.50
2023-07-18T21:23:11.837Z,17.30
2023-07-18T21:28:19.193Z,17.10
2023-07-18T21:33:26.166Z,17.30
2023-07-18T21:38:33.708Z,17.30
2023-07-18T21:43:40.690Z,17.20
2023-07-18T21:48:47.707Z,17.30
2023-07-18T21:53:54.599Z,17.50
2023-07-18T21:59:02.372Z,17.30
2023-07-18T22:04:09.632Z,17.30
2023-07-18T22:09:16.569Z,17.20
2023-07-18T22:14:24.719Z,17.00
2023-07-18T22:19:31.957Z,17.10
2023-07-18T22:24:38.896Z,16.90
2023-07-18T22:29:46.441Z,17.00
2023-07-18T22:34:53.803Z,17.10
2023-07-18T22:40:00.781Z,17.10
2023-07-18T22:45:08.688Z,17.20
2023-07-18T22:50:15.609Z,17.50
2023-07-18T22:55:22.416Z,17.60
2023-07-18T23:00:29.326Z,17.40
2023-07-18T23:05:36.133Z,17.10
2023-07-18T23:10:42.997Z,17.10
2023-07-18T23:15:49.736Z,17.10
2023-07-18T23:20:56.554Z,17.20
2023-07-18T23:26:03.398Z,17.10
2023-07-18T23:31:10.408Z,17.20
2023-07-18T23:36:17.182Z,17.50
2023-07-18T23:41:24.436Z,17.70
2023-07-18T23:46:33.074Z,17.70
2023-07-18T23:51:40.042Z,17.60
2023-07-18T23:56:47.022Z,17.70
